createdAt,value
2023-01-23T00:00:00.930Z,81.97
2023-01-23T00:02:27.858Z,81.00
2023-01-23T00:04:54.413Z,80.63
2023-01-23T00:07:20.981Z,80.80
2023-01-23T00:09:47.553Z,79.98
2023-01-23T00:12:14.119Z,81.90
2023-01-23T00:14:40.692Z,80.97
2023-01-23T00:17:07.320Z,82.34
2023-01-23T00:19:33.956Z,83.34
2023-01-23T00:22:01.056Z,83.44
2023-01-23T00:24:27.634Z,82.19
2023-01-23T00:26:54.480Z,82.40
2023-01-23T00:29:21.567Z,82.12
2023-01-23T00:31:48.221Z,81.62
2023-01-23T00:34:16.051Z,81.51
2023-01-23T00:36:43.794Z,81.17
2023-01-23T00:39:18.242Z,82.20
2023-01-23T00:41:45.763Z,81.51
2023-01-23T00:44:14.767Z,80.44
2023-01-23T00:46:44.529Z,81.75
2023-01-23T00:49:13.705Z,82.24
2023-01-23T00:51:40.373Z,83.35
2023-01-23T00:54:07.032Z,80.66
2023-01-23T00:56:42.045Z,80.38
2023-01-23T00:59:10.170Z,81.29
2023-01-23T01:01:36.979Z,79.99
2023-01-23T01:04:03.712Z,79.66
2023-01-23T01:06:30.609Z,80.88
2023-01-23T01:08:58.816Z,80.73
2023-01-23T01:11:25.701Z,80.63
2023-01-23T01:13:52.361Z,79.73
2023-01-23T01:16:19.520Z,79.79
2023-01-23T01:18:46.191Z,81.25
2023-01-23T01:21:14.181Z,79.52
2023-01-23T01:23:41.099Z,81.53
2023-01-23T01:26:08.055Z,80.83
2023-01-23T01:28:39.448Z,79.96
2023-01-23T01:31:10.897Z,81.11
2023-01-23T01:33:38.398Z,80.64
2023-01-23T01:36:12.966Z,80.30
2023-01-23T01:38:39.971Z,81.15
2023-01-23T01:41:07.608Z,81.78
2023-01-23T01:43:35.250Z,82.12
2023-01-23T01:46:16.611Z,81.03
2023-01-23T01:49:02.126Z,81.48
2023-01-23T01:51:31.614Z,81.07
2023-01-23T01:54:03.092Z,80.68
2023-01-23T01:56:30.564Z,81.86
2023-01-23T01:58:58.456Z,82.54
2023-01-23T02:01:25.676Z,82.24
2023-01-23T02:03:55.542Z,83.41
2023-01-23T02:06:22.291Z,81.74
2023-01-23T02:09:03.934Z,81.13
2023-01-23T02:11:30.987Z,81.45
2023-01-23T02:14:00.283Z,82.26
2023-01-23T02:16:29.687Z,81.65
2023-01-23T02:19:01.106Z,82.19
2023-01-23T02:21:29.092Z,81.37
2023-01-23T02:24:00.183Z,81.43
2023-01-23T02:26:29.396Z,82.42
2023-01-23T02:28:57.392Z,82.83
2023-01-23T02:31:31.114Z,80.63
2023-01-23T02:33:59.238Z,80.68
2023-01-23T02:36:28.399Z,80.08
2023-01-23T02:38:57.060Z,80.79
2023-01-23T02:41:28.209Z,80.63
2023-01-23T02:43:56.077Z,79.29
2023-01-23T02:46:26.639Z,80.52
2023-01-23T02:48:53.408Z,80.26
2023-01-23T02:51:21.954Z,81.25
2023-01-23T02:53:50.976Z,80.77
2023-01-23T02:56:18.391Z,80.39
2023-01-23T02:59:06.851Z,81.96
2023-01-23T03:01:35.769Z,81.80
2023-01-23T03:04:06.355Z,81.11
2023-01-23T03:06:37.543Z,83.20
2023-01-23T03:09:07.667Z,83.15
2023-01-23T03:11:35.107Z,82.26
2023-01-23T03:14:04.343Z,82.20
2023-01-23T03:16:31.040Z,82.06
2023-01-23T03:18:58.982Z,82.73
2023-01-23T03:21:30.336Z,82.05
2023-01-23T03:23:56.962Z,81.68
2023-01-23T03:26:23.613Z,80.81
2023-01-23T03:29:09.235Z,81.37
2023-01-23T03:31:35.870Z,80.56
2023-01-23T03:34:02.464Z,82.29
2023-01-23T03:36:33.176Z,81.86
2023-01-23T03:39:18.580Z,82.58
2023-01-23T03:41:45.848Z,83.96
2023-01-23T03:44:18.875Z,83.41
2023-01-23T03:47:03.943Z,81.43
2023-01-23T03:49:33.028Z,82.22
2023-01-23T03:51:59.857Z,82.14
2023-01-23T03:54:28.081Z,81.19
2023-01-23T03:56:54.893Z,81.87
2023-01-23T03:59:40.146Z,81.45
2023-01-23T04:02:07.956Z,82.03
2023-01-23T04:04:34.624Z,81.24
2023-01-23T04:07:03.041Z,81.40
2023-01-23T04:09:31.197Z,81.45
2023-01-23T04:11:59.649Z,81.14
2023-01-23T04:14:27.144Z,80.93
2023-01-23T04:16:54.092Z,80.53
2023-01-23T04:19:23.501Z,80.58
2023-01-23T04:21:53.158Z,81.08
2023-01-23T04:24:20.352Z,81.06
2023-01-23T04:26:49.329Z,81.59
2023-01-23T04:29:19.810Z,82.21
2023-01-23T04:31:46.748Z,82.13
2023-01-23T04:34:13.638Z,81.09
2023-01-23T04:36:43.873Z,80.51
2023-01-23T04:39:10.509Z,79.76
2023-01-23T04:41:40.322Z,80.24
2023-01-23T04:44:20.863Z,80.76
2023-01-23T04:47:13.826Z,80.46
2023-01-23T04:49:40.720Z,80.46
2023-01-23T04:52:07.295Z,79.89
2023-01-23T04:55:03.519Z,80.09
2023-01-23T04:57:30.694Z,80.61
2023-01-23T05:00:08.327Z,81.83
2023-01-23T05:02:35.989Z,80.22
2023-01-23T05:05:03.745Z,81.11
2023-01-23T05:07:31.106Z,80.44
2023-01-23T05:10:06.090Z,80.03
2023-01-23T05:12:34.453Z,81.31
2023-01-23T05:15:02.312Z,81.29
2023-01-23T05:17:29.315Z,79.85
2023-01-23T05:19:55.919Z,81.86
2023-01-23T05:22:22.901Z,81.76
2023-01-23T05:24:49.915Z,81.17
2023-01-23T05:27:18.983Z,81.57
2023-01-23T05:29:50.385Z,80.69
2023-01-23T05:32:21.780Z,79.89
2023-01-23T05:34:56.583Z,80.69
2023-01-23T05:37:30.569Z,79.32
2023-01-23T05:40:06.849Z,80.01
2023-01-23T05:43:14.648Z,80.33
2023-01-23T05:45:44.038Z,79.73
2023-01-23T05:48:20.094Z,81.32
2023-01-23T05:50:46.751Z,80.68
2023-01-23T05:53:13.735Z,82.83
2023-01-23T05:55:41.581Z,82.76
2023-01-23T05:58:15.765Z,82.61
2023-01-23T06:01:09.173Z,82.86
2023-01-23T06:03:54.676Z,84.04
2023-01-23T06:06:47.612Z,82.18
2023-01-23T06:09:14.312Z,81.85
2023-01-23T06:11:40.942Z,80.67
2023-01-23T06:14:09.103Z,80.24
2023-01-23T06:16:37.509Z,79.91
2023-01-23T06:19:05.514Z,81.23
2023-01-23T06:21:35.626Z,81.77
2023-01-23T06:24:04.375Z,81.11
2023-01-23T06:26:31.078Z,79.98
2023-01-23T06:28:57.845Z,80.08
2023-01-23T06:31:24.433Z,80.36
2023-01-23T06:33:58.694Z,81.19
2023-01-23T06:36:37.523Z,81.77
2023-01-23T06:39:04.331Z,81.29
2023-01-23T06:41:41.794Z,81.08
2023-01-23T06:44:12.841Z,81.57
2023-01-23T06:46:40.070Z,80.53
2023-01-23T06:49:06.736Z,80.44
2023-01-23T06:51:36.429Z,80.84
2023-01-23T06:54:05.498Z,80.54
2023-01-23T06:56:32.701Z,80.62
2023-01-23T06:59:05.454Z,80.24
2023-01-23T07:01:33.125Z,80.07
2023-01-23T07:04:11.573Z,80.14
2023-01-23T07:06:39.803Z,79.82
2023-01-23T07:09:06.745Z,80.47
2023-01-23T07:11:33.668Z,81.49
2023-01-23T07:14:00.978Z,80.47
2023-01-23T07:16:28.956Z,79.85
2023-01-23T07:19:01.632Z,80.83
2023-01-23T07:21:32.368Z,80.88
2023-01-23T07:23:58.985Z,80.18
2023-01-23T07:26:25.645Z,80.46
2023-01-23T07:28:54.871Z,80.89
2023-01-23T07:31:21.497Z,79.93
2023-01-23T07:33:48.182Z,80.79
2023-01-23T07:36:15.084Z,79.48
2023-01-23T07:38:41.804Z,80.90
2023-01-23T07:41:09.096Z,81.44
2023-01-23T07:43:35.874Z,80.39
2023-01-23T07:46:02.828Z,81.69
2023-01-23T07:48:29.724Z,82.20
2023-01-23T07:50:56.321Z,80.94
2023-01-23T07:53:30.295Z,81.19
2023-01-23T07:55:57.015Z,80.25
2023-01-23T07:58:26.709Z,81.09
2023-01-23T08:00:53.331Z,81.86
2023-01-23T08:03:21.189Z,83.26
2023-01-23T08:05:52.050Z,82.42
2023-01-23T08:08:20.979Z,81.60
2023-01-23T08:10:50.367Z,81.65
2023-01-23T08:13:16.966Z,81.46
2023-01-23T08:15:43.612Z,80.58
2023-01-23T08:18:13.228Z,80.90
2023-01-23T08:20:39.827Z,80.68
2023-01-23T08:23:06.444Z,80.86
2023-01-23T08:25:33.050Z,81.91
2023-01-23T08:27:59.567Z,80.34
2023-01-23T08:30:26.230Z,80.08
2023-01-23T08:32:52.986Z,80.87
2023-01-23T08:35:19.569Z,81.16
2023-01-23T08:37:46.144Z,81.26
2023-01-23T08:40:13.047Z,81.13
2023-01-23T08:42:39.585Z,81.46
2023-01-23T08:45:06.771Z,80.68
2023-01-23T08:47:36.698Z,82.60
2023-01-23T08:50:04.861Z,82.92
2023-01-23T08:52:31.659Z,81.89
2023-01-23T08:54:58.282Z,81.67
2023-01-23T08:57:25.317Z,81.02
2023-01-23T08:59:57.996Z,81.00
2023-01-23T09:02:24.677Z,82.14
2023-01-23T09:04:51.279Z,81.77
2023-01-23T09:07:17.892Z,82.42
2023-01-23T09:09:44.443Z,80.65
2023-01-23T09:12:11.225Z,80.28
2023-01-23T09:14:38.316Z,81.09
2023-01-23T09:17:05.832Z,82.73
2023-01-23T09:19:32.673Z,82.66
2023-01-23T09:21:59.369Z,83.44
2023-01-23T09:24:26.018Z,83.83
2023-01-23T09:26:54.760Z,83.19
2023-01-23T09:29:23.435Z,83.33
2023-01-23T09:31:50.188Z,83.91
2023-01-23T09:34:17.360Z,83.99
2023-01-23T09:36:47.259Z,83.58
2023-01-23T09:39:13.889Z,82.71
2023-01-23T09:41:43.790Z,82.63
2023-01-23T09:44:22.725Z,82.77
2023-01-23T09:47:02.339Z,83.14
2023-01-23T09:49:34.602Z,83.76
2023-01-23T09:52:24.607Z,83.13
2023-01-23T09:54:59.645Z,82.22
2023-01-23T09:57:28.539Z,83.04
2023-01-23T10:00:00.649Z,83.32
2023-01-23T10:02:27.842Z,84.70
2023-01-23T10:04:55.123Z,85.05
2023-01-23T10:07:40.600Z,83.13
2023-01-23T10:10:25.949Z,82.87
2023-01-23T10:12:59.056Z,81.61
2023-01-23T10:15:27.456Z,81.51
2023-01-23T10:18:12.394Z,81.53
2023-01-23T10:21:03.651Z,82.17
2023-01-23T10:23:46.229Z,82.38
2023-01-23T10:26:15.545Z,83.04
2023-01-23T10:28:43.796Z,82.74
2023-01-23T10:31:18.529Z,82.69
2023-01-23T10:33:45.162Z,81.78
2023-01-23T10:36:32.513Z,82.27
2023-01-23T10:39:04.740Z,81.74
2023-01-23T10:41:32.237Z,81.45
2023-01-23T10:44:00.354Z,80.90
2023-01-23T10:46:32.486Z,81.74
2023-01-23T10:49:00.186Z,82.71
2023-01-23T10:51:46.941Z,82.72
2023-01-23T10:54:33.079Z,82.29
2023-01-23T10:56:59.962Z,84.09
2023-01-23T10:59:41.414Z,82.59
2023-01-23T11:02:14.483Z,81.39
2023-01-23T11:04:51.928Z,82.76
2023-01-23T11:07:23.414Z,82.79
2023-01-23T11:09:52.743Z,82.02
2023-01-23T11:12:39.645Z,84.19
2023-01-23T11:15:22.106Z,83.75
2023-01-23T11:17:50.093Z,83.90
2023-01-23T11:20:23.391Z,83.82
2023-01-23T11:23:00.868Z,83.39
2023-01-23T11:25:29.208Z,84.05
2023-01-23T11:28:00.375Z,82.87
2023-01-23T11:30:31.577Z,82.65
2023-01-23T11:33:14.943Z,81.54
2023-01-23T11:35:51.598Z,82.42
2023-01-23T11:38:30.471Z,82.46
2023-01-23T11:40:58.378Z,82.93
2023-01-23T11:43:25.047Z,83.47
2023-01-23T11:45:54.818Z,82.71
2023-01-23T11:48:27.469Z,82.24
2023-01-23T11:50:58.594Z,81.27
2023-01-23T11:53:43.697Z,81.99
2023-01-23T11:56:16.399Z,81.70
2023-01-23T11:58:49.932Z,82.30
2023-01-23T12:01:34.988Z,82.96
2023-01-23T12:04:10.765Z,82.23
2023-01-23T12:06:44.079Z,82.38
2023-01-23T12:09:11.086Z,81.66
2023-01-23T12:11:47.588Z,82.75
2023-01-23T12:14:32.898Z,84.18
2023-01-23T12:17:12.200Z,83.03
2023-01-23T12:19:48.091Z,83.71
2023-01-23T12:22:14.768Z,82.19
2023-01-23T12:24:41.267Z,82.72
2023-01-23T12:27:10.540Z,82.39
2023-01-23T12:29:49.408Z,82.95
2023-01-23T12:32:28.946Z,82.13
2023-01-23T12:35:00.727Z,81.50
2023-01-23T12:37:37.749Z,82.53
2023-01-23T12:40:25.071Z,82.41
2023-01-23T12:42:56.526Z,80.71
2023-01-23T12:45:32.953Z,80.63
2023-01-23T12:48:18.358Z,80.85
2023-01-23T12:51:00.418Z,81.49
2023-01-23T12:53:28.193Z,82.29
2023-01-23T12:55:55.576Z,83.42
2023-01-23T12:58:23.740Z,82.00
2023-01-23T13:01:02.212Z,81.97
2023-01-23T13:03:46.963Z,82.83
2023-01-23T13:06:29.027Z,83.39
2023-01-23T13:09:33.018Z,83.59
2023-01-23T13:12:22.842Z,83.89
2023-01-23T13:15:10.522Z,83.43
2023-01-23T13:17:40.182Z,82.56
2023-01-23T13:20:37.780Z,83.65
2023-01-23T13:23:30.498Z,82.89
2023-01-23T13:26:16.802Z,84.42
2023-01-23T13:28:46.177Z,83.61
2023-01-23T13:31:32.912Z,84.51
2023-01-23T13:34:14.212Z,84.03
2023-01-23T13:36:43.073Z,83.61
2023-01-23T13:39:10.537Z,84.20
2023-01-23T13:41:37.359Z,83.50
2023-01-23T13:44:22.951Z,82.38
2023-01-23T14:27:21.996Z,80.91
2023-01-23T14:30:10.504Z,81.69
2023-01-23T14:32:38.458Z,82.00
2023-01-23T14:35:32.004Z,83.84
2023-01-23T14:38:04.999Z,84.53
2023-01-23T14:40:43.192Z,82.64
2023-01-23T14:43:27.864Z,82.13
2023-01-23T14:46:02.313Z,83.79
2023-01-23T14:48:30.957Z,82.77
2023-01-23T14:51:17.366Z,82.91
2023-01-23T14:53:50.527Z,81.94
2023-01-23T14:56:17.685Z,81.05
2023-01-23T14:58:49.554Z,80.95
2023-01-23T15:01:17.783Z,82.78
2023-01-23T15:03:54.639Z,81.26
2023-01-23T15:06:21.941Z,82.74
2023-01-23T15:08:49.067Z,82.11
2023-01-23T15:11:16.441Z,82.30
2023-01-23T15:13:48.966Z,82.55
2023-01-23T15:16:26.294Z,82.03
2023-01-23T15:19:18.975Z,83.17
2023-01-23T15:21:45.653Z,82.00
2023-01-23T15:24:12.254Z,81.93
2023-01-23T15:26:55.594Z,81.39
2023-01-23T15:29:22.228Z,81.90
2023-01-23T15:31:50.740Z,81.00
2023-01-23T15:34:19.513Z,81.50
2023-01-23T15:36:51.545Z,80.88
2023-01-23T15:39:36.704Z,80.91
2023-01-23T15:42:03.856Z,81.78
2023-01-23T15:44:32.139Z,82.51
2023-01-23T15:47:01.275Z,81.22
2023-01-23T15:49:28.946Z,82.68
2023-01-23T15:51:57.411Z,82.65
2023-01-23T15:54:34.154Z,82.01
2023-01-23T15:57:07.407Z,81.35
2023-01-23T15:59:34.850Z,81.56
2023-01-23T16:02:01.419Z,82.29
2023-01-23T16:04:28.005Z,81.76
2023-01-23T16:06:54.617Z,81.94
2023-01-23T16:09:27.990Z,81.07
2023-01-23T16:11:54.819Z,82.15
2023-01-23T16:14:21.418Z,80.63
2023-01-23T16:16:48.105Z,81.21
2023-01-23T16:19:14.860Z,81.03
2023-01-23T16:21:47.745Z,81.29
2023-01-23T16:24:24.129Z,81.56
2023-01-23T16:26:51.133Z,80.76
2023-01-23T16:29:28.071Z,80.34
2023-01-23T16:31:55.381Z,80.05
2023-01-23T16:34:22.361Z,80.57
2023-01-23T16:36:50.303Z,80.45
2023-01-23T16:39:27.311Z,79.95
2023-01-23T16:41:55.004Z,80.99
2023-01-23T16:44:23.794Z,79.69
2023-01-23T16:46:51.228Z,81.75
2023-01-23T16:49:17.869Z,82.20
2023-01-23T16:51:51.606Z,81.74
2023-01-23T16:54:19.470Z,81.83
2023-01-23T16:56:51.637Z,81.65
2023-01-23T16:59:26.437Z,82.40
2023-01-23T17:01:53.262Z,80.98
2023-01-23T17:04:20.907Z,81.08
2023-01-23T17:06:48.325Z,81.56
2023-01-23T17:09:15.409Z,80.55
2023-01-23T17:11:42.900Z,81.86
2023-01-23T17:14:21.846Z,81.72
2023-01-23T17:16:52.474Z,82.62
2023-01-23T17:19:34.054Z,82.27
2023-01-23T17:22:01.581Z,81.12
2023-01-23T17:24:30.659Z,81.76
2023-01-23T17:26:57.423Z,80.56
2023-01-23T17:29:24.780Z,79.92
2023-01-23T17:31:52.475Z,79.46
2023-01-23T17:34:24.396Z,79.59
2023-01-23T17:36:52.871Z,79.92
2023-01-23T17:39:20.553Z,80.70
2023-01-23T17:41:47.265Z,80.29
2023-01-23T17:44:13.813Z,81.81
2023-01-23T17:46:41.369Z,81.26
2023-01-23T17:49:29.136Z,80.88
2023-01-23T17:51:56.676Z,80.35
2023-01-23T17:54:23.458Z,81.07
2023-01-23T17:56:50.160Z,80.53
2023-01-23T17:59:16.689Z,80.80
2023-01-23T18:01:44.993Z,82.20
2023-01-23T18:04:16.737Z,82.11
2023-01-23T18:06:43.369Z,81.59
2023-01-23T18:09:10.015Z,81.08
2023-01-23T18:11:40.010Z,80.65
2023-01-23T18:14:26.323Z,81.08
2023-01-23T18:16:53.743Z,81.29
2023-01-23T18:19:21.892Z,81.68
2023-01-23T18:21:49.936Z,80.43
2023-01-23T18:24:32.459Z,80.35
2023-01-23T18:27:09.850Z,79.64
2023-01-23T18:29:51.707Z,80.21
2023-01-23T18:32:39.032Z,79.89
2023-01-23T18:35:14.836Z,79.26
2023-01-23T18:37:47.625Z,79.63
2023-01-23T18:40:14.508Z,81.62
2023-01-23T18:42:41.028Z,80.77
2023-01-23T18:45:12.478Z,80.86
2023-01-23T18:47:42.653Z,80.54
2023-01-23T18:50:15.175Z,79.92
2023-01-23T18:52:51.546Z,79.52
2023-01-23T18:55:31.926Z,80.57
2023-01-23T18:58:21.409Z,81.27
2023-01-23T19:00:54.716Z,82.52
2023-01-23T19:03:28.323Z,81.07
2023-01-23T19:05:55.071Z,80.74
2023-01-23T19:08:32.805Z,80.33
2023-01-23T19:11:02.018Z,81.45
2023-01-23T19:13:45.060Z,81.13
2023-01-23T19:16:14.135Z,79.84
2023-01-23T19:18:40.869Z,80.09
2023-01-23T19:21:12.487Z,81.13
2023-01-23T19:23:50.162Z,80.57
2023-01-23T19:26:17.901Z,80.93
2023-01-23T19:28:44.651Z,80.54
2023-01-23T19:31:19.091Z,80.49
2023-01-23T19:33:45.741Z,81.27
2023-01-23T19:36:12.945Z,80.54
2023-01-23T19:38:39.705Z,79.96
2023-01-23T19:41:06.465Z,80.05
2023-01-23T19:43:33.239Z,81.37
2023-01-23T19:46:03.175Z,79.80
2023-01-23T19:48:30.261Z,80.31
2023-01-23T19:50:58.252Z,80.10
2023-01-23T19:53:24.962Z,80.36
2023-01-23T19:55:51.571Z,79.39
2023-01-23T19:58:18.139Z,78.92
2023-01-23T20:00:45.312Z,80.28
2023-01-23T20:03:15.443Z,80.90
2023-01-23T20:05:42.064Z,80.56
2023-01-23T20:08:11.090Z,79.54
2023-01-23T20:10:37.662Z,78.43
2023-01-23T20:13:04.211Z,78.81
2023-01-23T20:15:30.811Z,80.49
2023-01-23T20:17:57.551Z,79.67
2023-01-23T20:20:24.496Z,78.69
2023-01-23T20:22:58.374Z,79.67
2023-01-23T20:25:24.972Z,81.66
2023-01-23T20:27:51.691Z,80.98
2023-01-23T20:30:19.686Z,80.15
2023-01-23T20:32:46.489Z,80.81
2023-01-23T20:35:13.187Z,80.17
2023-01-23T20:37:39.767Z,79.95
2023-01-23T20:40:08.903Z,81.61
2023-01-23T20:42:35.569Z,82.60
2023-01-23T20:45:02.206Z,82.70
2023-01-23T20:47:31.816Z,81.30
2023-01-23T20:49:58.995Z,81.15
2023-01-23T20:52:46.484Z,79.87
2023-01-23T20:55:13.140Z,79.90
2023-01-23T20:57:58.361Z,79.40
2023-01-23T21:00:24.996Z,79.54
2023-01-23T21:02:51.574Z,79.70
2023-01-23T21:05:18.215Z,79.53
2023-01-23T21:07:44.818Z,79.19
2023-01-23T21:10:11.591Z,79.67
2023-01-23T21:12:38.198Z,79.43
2023-01-23T21:15:04.998Z,79.06
2023-01-23T21:17:31.571Z,79.83
2023-01-23T21:19:58.143Z,79.62
2023-01-23T21:22:24.732Z,79.29
2023-01-23T21:24:52.121Z,80.38
2023-01-23T21:27:20.956Z,79.73
2023-01-23T21:29:50.842Z,80.45
2023-01-23T21:32:17.428Z,80.48
2023-01-23T21:34:44.126Z,80.69
2023-01-23T21:37:10.982Z,80.49
2023-01-23T21:39:40.320Z,79.84
2023-01-23T21:42:06.907Z,80.95
2023-01-23T21:44:36.397Z,80.42
2023-01-23T21:47:05.729Z,80.43
2023-01-23T21:49:32.303Z,80.07
2023-01-23T21:51:58.875Z,81.13
2023-01-23T21:54:25.489Z,81.24
2023-01-23T21:56:52.102Z,81.04
2023-01-23T21:59:18.816Z,81.17
2023-01-23T22:01:46.795Z,81.74
2023-01-23T22:04:18.403Z,81.38
2023-01-23T22:06:47.808Z,82.20
2023-01-23T22:09:16.123Z,79.81
2023-01-23T22:11:43.160Z,80.30
2023-01-23T22:14:09.782Z,80.15
2023-01-23T22:16:48.103Z,79.95
2023-01-23T22:19:16.641Z,79.92
2023-01-23T22:21:51.648Z,79.56
2023-01-23T22:24:20.551Z,80.22
2023-01-23T22:26:47.269Z,79.00
2023-01-23T22:29:14.023Z,79.61
2023-01-23T22:31:41.090Z,80.58
2023-01-23T22:34:07.808Z,80.52
2023-01-23T22:36:36.303Z,79.81
2023-01-23T22:39:02.956Z,78.48
2023-01-23T22:41:29.523Z,79.40
2023-01-23T22:43:56.711Z,79.55
2023-01-23T22:46:23.916Z,79.89
2023-01-23T22:48:50.891Z,81.44
2023-01-23T22:51:23.627Z,80.91
2023-01-23T22:53:53.411Z,81.41
2023-01-23T22:56:20.510Z,82.50
2023-01-23T22:58:47.810Z,82.87
2023-01-23T23:01:20.694Z,82.33
2023-01-23T23:03:47.310Z,81.78
2023-01-23T23:06:14.939Z,82.21
2023-01-23T23:08:41.808Z,80.62
2023-01-23T23:11:09.750Z,81.55
2023-01-23T23:13:37.410Z,82.63
2023-01-23T23:16:25.973Z,81.37
2023-01-23T23:18:53.697Z,80.38
2023-01-23T23:21:21.906Z,79.74
2023-01-23T23:23:49.012Z,79.61
2023-01-23T23:26:16.169Z,81.41
2023-01-23T23:28:50.118Z,81.07
2023-01-23T23:31:16.765Z,81.04
2023-01-23T23:33:43.407Z,81.27
2023-01-23T23:36:12.669Z,79.65
2023-01-23T23:38:41.594Z,80.86
2023-01-23T23:41:15.882Z,78.88
2023-01-23T23:43:43.374Z,79.75
2023-01-23T23:46:10.862Z,80.46
2023-01-23T23:48:38.299Z,79.53
2023-01-23T23:51:06.915Z,79.12
2023-01-23T23:53:34.036Z,79.87
2023-01-23T23:56:00.561Z,80.08
2023-01-23T23:58:27.266Z,79.88
